Time;durP1;ratioP1;P1;durP2;ratioP2;P2;SDS_P1;SDS_P2;PMS_P1;PMS_P2;Temp;Humidity;BMP_temperature;BMP_pressure;BME280_temperature;BME280_humidity;BME280_pressure;Samples;Min_cycle;Max_cycle;Signal;HPM_P1;HPM_P2
2023/03/27 00:01:18;;;;;;;4.97;1.10;;;5.00;99.90;;;;;;4986292;28;20335;-73
2023/03/27 00:03:47;;;;;;;6.10;1.60;;;5.00;99.90;;;;;;4956461;28;20085;-73
2023/03/27 00:06:16;;;;;;;2.92;0.90;;;5.00;99.90;;;;;;4968227;28;20042;-73
2023/03/27 00:08:47;;;;;;;8.77;1.20;;;4.90;99.90;;;;;;4959965;28;20065;-73
2023/03/27 00:11:13;;;;;;;4.97;0.95;;;4.80;99.90;;;;;;4962421;28;20046;-73
2023/03/27 00:13:39;;;;;;;4.47;1.20;;;4.80;99.90;;;;;;4962002;28;20047;-73
2023/03/27 00:16:05;;;;;;;6.15;1.30;;;4.80;99.90;;;;;;4967588;28;20509;-74
2023/03/27 00:18:32;;;;;;;7.30;1.08;;;4.80;99.90;;;;;;4972350;28;20069;-73
2023/03/27 00:20:59;;;;;;;4.15;1.15;;;4.80;99.90;;;;;;4971861;28;20468;-73
2023/03/27 00:23:28;;;;;;;5.45;1.08;;;4.80;99.90;;;;;;4967973;28;20125;-74
2023/03/27 00:25:55;;;;;;;5.57;1.52;;;4.80;99.90;;;;;;4950776;28;20256;-74
2023/03/27 00:28:21;;;;;;;4.73;1.00;;;4.70;99.90;;;;;;4954890;28;20049;-73
2023/03/27 00:30:47;;;;;;;3.97;0.95;;;4.60;99.90;;;;;;4980250;28;20418;-74
2023/03/27 00:33:14;;;;;;;4.80;1.00;;;4.60;99.90;;;;;;4952453;28;20061;-74
2023/03/27 00:35:49;;;;;;;5.17;1.00;;;4.70;99.90;;;;;;4982495;28;20074;-74
2023/03/27 00:38:17;;;;;;;2.78;0.80;;;4.60;99.90;;;;;;4961846;28;20487;-74
2023/03/27 00:40:46;;;;;;;6.90;0.90;;;4.50;99.90;;;;;;4937291;28;20463;-74
2023/03/27 00:43:19;;;;;;;6.55;0.98;;;4.60;99.90;;;;;;4966817;28;20448;-74
2023/03/27 00:45:46;;;;;;;3.85;0.77;;;4.60;99.90;;;;;;4988822;28;20117;-74
2023/03/27 00:48:12;;;;;;;4.88;0.77;;;4.60;99.90;;;;;;4963378;28;20502;-74
2023/03/27 00:50:39;;;;;;;5.82;1.25;;;4.60;99.90;;;;;;4965147;28;20050;-73
2023/03/27 00:53:14;;;;;;;3.78;0.80;;;4.60;99.90;;;;;;4951211;28;20175;-74
2023/03/27 00:55:41;;;;;;;8.18;1.00;;;4.60;99.90;;;;;;4967955;28;20057;-74
2023/03/27 00:58:10;;;;;;;3.70;1.02;;;4.50;99.90;;;;;;4957968;28;20539;-74
2023/03/27 01:00:36;;;;;;;6.95;1.10;;;4.40;99.90;;;;;;4952968;28;20058;-74
2023/03/27 01:03:06;;;;;;;6.60;1.55;;;4.40;99.90;;;;;;4946611;28;20130;-73
2023/03/27 01:05:32;;;;;;;6.03;1.27;;;4.40;99.90;;;;;;4959483;28;20804;-74
2023/03/27 01:07:57;;;;;;;5.00;1.20;;;4.30;99.90;;;;;;4969159;28;20043;-74
2023/03/27 01:10:32;;;;;;;6.00;1.00;;;4.20;99.90;;;;;;4974061;28;20043;-73
2023/03/27 01:13:17;;;;;;;4.97;1.20;;;4.10;99.90;;;;;;4961364;28;20042;-74
2023/03/27 01:15:56;;;;;;;5.47;1.30;;;4.00;99.90;;;;;;4962598;28;20137;-73
2023/03/27 01:18:28;;;;;;;3.38;0.90;;;4.00;99.90;;;;;;4975956;28;20046;-73
2023/03/27 01:21:05;;;;;;;8.88;1.30;;;3.90;99.90;;;;;;4984774;28;20054;-74
2023/03/27 01:24:04;;;;;;;4.53;0.90;;;3.90;99.90;;;;;;4968628;28;20181;-73
2023/03/27 01:26:36;;;;;;;7.53;1.13;;;3.80;99.90;;;;;;4978816;28;20044;-74
2023/03/27 01:29:16;;;;;;;3.90;1.23;;;3.70;99.90;;;;;;4984449;28;20068;-74
2023/03/27 01:31:54;;;;;;;3.95;1.25;;;3.70;99.90;;;;;;4972442;28;20048;-74
2023/03/27 01:34:26;;;;;;;9.10;1.98;;;3.70;99.90;;;;;;4972846;28;20047;-73
2023/03/27 01:37:27;;;;;;;6.10;1.08;;;3.60;99.90;;;;;;4962610;28;20134;-73
2023/03/27 01:40:04;;;;;;;4.80;1.38;;;3.50;99.90;;;;;;4980961;28;20050;-72
2023/03/27 01:42:35;;;;;;;5.63;1.40;;;3.50;99.90;;;;;;4980644;28;20213;-72
2023/03/27 01:45:05;;;;;;;4.53;1.13;;;3.50;99.90;;;;;;4956993;28;20129;-73
2023/03/27 01:47:50;;;;;;;5.30;1.40;;;3.50;99.90;;;;;;4957967;28;20114;-73
2023/03/27 01:50:18;;;;;;;4.35;1.13;;;3.40;99.90;;;;;;4964879;28;20464;-73
2023/03/27 01:52:51;;;;;;;9.73;1.40;;;3.40;99.90;;;;;;4979693;28;20043;-73
2023/03/27 01:55:18;;;;;;;5.90;1.17;;;3.30;99.90;;;;;;4959586;28;20440;-73
2023/03/27 01:57:53;;;;;;;6.05;1.30;;;3.30;99.90;;;;;;4967154;28;20105;-73
2023/03/27 02:00:21;;;;;;;4.63;0.95;;;3.30;99.90;;;;;;4950951;28;20109;-72
2023/03/27 02:03:08;;;;;;;3.65;1.13;;;3.20;99.90;;;;;;4947102;28;20050;-72
2023/03/27 02:05:46;;;;;;;3.95;1.17;;;3.20;99.90;;;;;;4966391;28;20101;-72
2023/03/27 02:08:20;;;;;;;7.25;1.48;;;3.10;99.90;;;;;;4976842;28;20038;-72
2023/03/27 02:10:48;;;;;;;6.00;1.42;;;3.00;99.90;;;;;;4962808;28;20063;-73
2023/03/27 02:13:20;;;;;;;9.75;1.75;;;3.00;99.90;;;;;;4963758;28;20086;-73
2023/03/27 02:15:47;;;;;;;8.75;1.67;;;2.90;99.90;;;;;;4970219;28;20922;-72
2023/03/27 02:18:18;;;;;;;6.47;1.23;;;2.90;99.90;;;;;;4949955;28;20134;-73
2023/03/27 02:20:43;;;;;;;8.40;1.67;;;2.80;99.90;;;;;;4949452;28;20043;-73
2023/03/27 02:23:10;;;;;;;5.90;1.30;;;2.70;99.90;;;;;;4935705;28;20054;-73
2023/03/27 02:25:40;;;;;;;8.23;1.20;;;2.70;99.90;;;;;;4981051;28;20125;-73
2023/03/27 02:28:24;;;;;;;9.30;1.35;;;2.70;99.90;;;;;;4987428;28;20042;-72
2023/03/27 02:31:08;;;;;;;8.30;1.20;;;2.60;99.90;;;;;;4991344;28;20467;-73
2023/03/27 02:33:43;;;;;;;5.43;1.38;;;2.70;99.90;;;;;;4993296;28;20054;-73
2023/03/27 02:36:20;;;;;;;8.10;1.15;;;2.70;99.90;;;;;;4992054;28;20489;-72
2023/03/27 02:38:59;;;;;;;7.22;1.63;;;2.60;99.90;;;;;;4967659;28;20050;-73
2023/03/27 02:41:37;;;;;;;8.35;1.52;;;2.60;99.90;;;;;;4948951;28;20067;-73
2023/03/27 02:44:11;;;;;;;3.97;1.13;;;2.50;99.90;;;;;;4978919;28;20719;-73
2023/03/27 02:46:51;;;;;;;8.73;1.20;;;2.60;99.90;;;;;;4981141;28;20042;-72
2023/03/27 02:49:20;;;;;;;5.85;1.20;;;2.60;99.90;;;;;;4967276;28;20070;-72
2023/03/27 02:51:55;;;;;;;8.98;1.75;;;2.60;99.90;;;;;;4948759;28;20114;-72
2023/03/27 02:54:24;;;;;;;7.07;1.20;;;2.60;99.90;;;;;;4966044;28;20086;-73
2023/03/27 02:56:53;;;;;;;4.20;1.20;;;2.60;99.90;;;;;;4964242;28;20727;-73
2023/03/27 02:59:24;;;;;;;7.47;1.60;;;2.60;99.90;;;;;;4947595;28;20046;-73
2023/03/27 03:01:50;;;;;;;9.40;1.40;;;2.50;99.90;;;;;;4985134;28;20897;-73
2023/03/27 03:04:21;;;;;;;8.98;1.48;;;2.60;99.90;;;;;;4973213;28;20129;-73
2023/03/27 03:06:49;;;;;;;8.10;1.60;;;2.60;99.90;;;;;;4973422;28;20499;-73
2023/03/27 03:09:15;;;;;;;7.43;1.75;;;2.40;99.90;;;;;;4967375;28;20053;-73
2023/03/27 03:11:47;;;;;;;10.70;1.75;;;2.50;99.90;;;;;;4952350;28;20051;-73
2023/03/27 03:14:12;;;;;;;8.52;1.58;;;2.50;99.90;;;;;;4952153;28;20042;-73
2023/03/27 03:16:38;;;;;;;7.03;1.15;;;2.50;99.90;;;;;;4970170;28;20080;-73
2023/03/27 03:19:04;;;;;;;6.65;1.63;;;2.50;99.90;;;;;;4967774;28;20606;-73
2023/03/27 03:21:30;;;;;;;6.07;1.20;;;2.50;99.90;;;;;;4981669;28;20550;-73
2023/03/27 03:23:56;;;;;;;11.15;1.48;;;2.40;99.90;;;;;;4959109;28;20043;-73
2023/03/27 03:26:22;;;;;;;11.93;1.75;;;2.40;99.90;;;;;;4978737;28;20101;-73
2023/03/27 03:28:48;;;;;;;11.68;1.55;;;2.40;99.90;;;;;;4926787;28;20039;-73
2023/03/27 03:31:14;;;;;;;7.63;1.30;;;2.50;99.90;;;;;;4980945;28;20743;-73
2023/03/27 03:33:40;;;;;;;7.43;1.17;;;2.40;99.90;;;;;;4959520;28;20101;-72
2023/03/27 03:36:06;;;;;;;9.25;2.28;;;2.40;99.90;;;;;;4976832;28;20120;-73
2023/03/27 03:38:34;;;;;;;7.63;1.30;;;2.50;99.90;;;;;;4969029;28;20124;-73
2023/03/27 03:41:00;;;;;;;11.32;2.55;;;2.50;99.90;;;;;;4954346;28;20050;-73
2023/03/27 03:43:26;;;;;;;7.65;1.25;;;2.40;99.90;;;;;;4946626;28;20057;-73
2023/03/27 03:45:53;;;;;;;7.22;1.70;;;2.50;99.90;;;;;;4968974;28;20447;-73
2023/03/27 03:48:19;;;;;;;10.10;1.80;;;2.50;99.90;;;;;;4990163;28;20624;-73
2023/03/27 03:50:45;;;;;;;9.65;1.30;;;2.40;99.90;;;;;;4961988;28;20050;-73
2023/03/27 03:53:12;;;;;;;7.15;1.38;;;2.50;99.90;;;;;;4955762;28;20451;-73
2023/03/27 03:55:38;;;;;;;9.60;1.73;;;2.60;99.90;;;;;;4957899;28;20057;-73
2023/03/27 03:58:04;;;;;;;10.75;1.45;;;2.50;99.90;;;;;;4980708;28;20050;-73
2023/03/27 04:00:30;;;;;;;12.93;1.40;;;2.50;99.90;;;;;;4948136;28;20057;-73
2023/03/27 04:02:56;;;;;;;6.75;1.10;;;2.40;99.90;;;;;;4977083;28;20550;-73
2023/03/27 04:05:22;;;;;;;10.60;1.50;;;2.40;99.90;;;;;;4946176;28;20120;-73
2023/03/27 04:07:48;;;;;;;8.82;1.30;;;2.30;99.90;;;;;;4984295;28;20061;-72
2023/03/27 04:10:15;;;;;;;8.70;2.20;;;2.30;99.90;;;;;;4982831;28;20062;-73
2023/03/27 04:12:45;;;;;;;7.20;1.33;;;2.30;99.90;;;;;;4938364;28;20053;-72
2023/03/27 04:15:11;;;;;;;5.97;1.58;;;2.30;99.90;;;;;;4968381;28;20050;-72
2023/03/27 04:17:37;;;;;;;10.32;2.42;;;2.40;99.90;;;;;;4980548;28;20054;-73
2023/03/27 04:20:05;;;;;;;7.38;1.40;;;2.30;99.90;;;;;;4981169;28;20467;-73
2023/03/27 04:22:36;;;;;;;10.88;2.03;;;2.30;99.90;;;;;;4957194;28;20554;-72
2023/03/27 04:25:06;;;;;;;11.63;1.85;;;2.10;99.90;;;;;;4974225;28;20039;-73
2023/03/27 04:27:32;;;;;;;11.15;2.17;;;2.10;99.90;;;;;;4935811;28;20046;-73
2023/03/27 04:29:58;;;;;;;9.02;1.58;;;2.20;99.90;;;;;;4951910;28;20049;-73
2023/03/27 04:32:25;;;;;;;8.23;1.33;;;2.10;99.90;;;;;;4981448;28;20054;-72
2023/03/27 04:34:50;;;;;;;10.27;1.80;;;2.00;99.90;;;;;;4946448;28;20069;-73
2023/03/27 04:37:17;;;;;;;8.05;1.50;;;2.10;99.90;;;;;;4958578;28;20395;-73
2023/03/27 04:39:45;;;;;;;9.40;1.45;;;2.10;99.90;;;;;;4947824;28;20062;-73
2023/03/27 04:42:11;;;;;;;7.28;0.98;;;2.20;99.90;;;;;;4965558;28;20137;-72
2023/03/27 04:44:37;;;;;;;11.18;1.98;;;2.10;99.90;;;;;;4953849;28;20053;-72
2023/03/27 04:47:05;;;;;;;9.35;1.70;;;2.10;99.90;;;;;;4966999;28;20042;-73
2023/03/27 04:49:38;;;;;;;5.75;1.92;;;2.10;99.90;;;;;;4951655;28;20061;-73
2023/03/27 04:52:07;;;;;;;8.40;1.45;;;2.30;99.90;;;;;;4945047;28;20074;-71
2023/03/27 04:54:33;;;;;;;7.15;1.58;;;2.30;99.90;;;;;;4955573;28;20050;-70
2023/03/27 04:57:02;;;;;;;7.90;1.50;;;2.30;99.90;;;;;;4970687;28;20042;-70
2023/03/27 04:59:30;;;;;;;7.80;1.42;;;2.30;99.90;;;;;;4961811;28;20057;-71
2023/03/27 05:01:57;;;;;;;9.38;1.73;;;2.30;99.90;;;;;;4959712;28;20062;-70
2023/03/27 05:04:26;;;;;;;7.50;1.50;;;2.40;99.90;;;;;;4964964;28;20093;-72
2023/03/27 05:06:53;;;;;;;8.98;1.45;;;2.40;99.90;;;;;;4958561;28;20051;-71
2023/03/27 05:09:19;;;;;;;11.32;2.33;;;2.30;99.90;;;;;;4967986;28;20039;-72
2023/03/27 05:11:48;;;;;;;6.97;1.67;;;2.30;99.90;;;;;;4965790;28;20054;-72
2023/03/27 05:14:16;;;;;;;8.55;1.52;;;2.20;99.90;;;;;;4971930;28;20088;-72
2023/03/27 05:16:41;;;;;;;9.25;1.92;;;2.20;99.90;;;;;;4971103;28;20051;-72
2023/03/27 05:19:07;;;;;;;6.32;1.42;;;2.10;99.90;;;;;;4952993;28;20054;-72
2023/03/27 05:21:33;;;;;;;13.00;2.42;;;2.10;99.90;;;;;;4971278;28;20125;-72
2023/03/27 05:23:59;;;;;;;9.57;1.80;;;2.00;99.90;;;;;;4950017;28;20077;-72
2023/03/27 05:26:25;;;;;;;11.15;2.42;;;2.10;99.90;;;;;;4976995;28;20050;-72
2023/03/27 05:28:53;;;;;;;9.13;1.95;;;2.10;99.90;;;;;;4961161;28;20379;-72
2023/03/27 05:31:19;;;;;;;16.67;2.22;;;2.20;99.90;;;;;;4966469;28;20046;-72
2023/03/27 05:33:44;;;;;;;17.25;2.28;;;2.10;99.90;;;;;;4939493;28;20059;-71
2023/03/27 05:36:10;;;;;;;10.82;2.40;;;2.10;99.90;;;;;;4971273;28;20117;-71
2023/03/27 05:38:36;;;;;;;11.13;2.15;;;2.10;99.90;;;;;;4990104;28;20046;-72
2023/03/27 05:41:03;;;;;;;8.13;1.92;;;2.10;99.90;;;;;;4945112;28;20058;-72
2023/03/27 05:43:28;;;;;;;10.27;2.50;;;2.20;99.90;;;;;;4961219;28;20062;-72
2023/03/27 05:45:54;;;;;;;12.88;2.03;;;2.20;99.90;;;;;;4974253;28;20078;-72
2023/03/27 05:48:20;;;;;;;10.82;2.63;;;2.10;99.90;;;;;;4954055;28;20046;-72
2023/03/27 05:50:46;;;;;;;8.05;2.22;;;2.20;99.90;;;;;;4974356;28;20081;-72
2023/03/27 05:53:11;;;;;;;11.35;2.63;;;2.20;99.90;;;;;;4972730;28;20361;-73
2023/03/27 05:55:37;;;;;;;13.48;3.03;;;2.20;99.90;;;;;;4972574;28;20094;-73
2023/03/27 05:58:05;;;;;;;11.00;2.53;;;2.30;99.90;;;;;;4984669;28;20054;-73
2023/03/27 06:00:33;;;;;;;10.30;3.15;;;2.20;99.90;;;;;;4992241;28;20139;-72
2023/03/27 06:02:59;;;;;;;14.57;2.13;;;2.30;99.90;;;;;;4956352;28;20154;-72
2023/03/27 06:05:28;;;;;;;9.85;2.13;;;2.30;99.90;;;;;;4954921;28;20066;-73
2023/03/27 06:07:54;;;;;;;8.60;2.35;;;2.40;99.90;;;;;;4963607;28;20106;-72
2023/03/27 06:10:20;;;;;;;11.18;1.80;;;2.50;99.90;;;;;;4967619;28;20093;-72
2023/03/27 06:12:49;;;;;;;10.15;2.22;;;2.60;99.90;;;;;;4937432;28;20137;-73
2023/03/27 06:15:15;;;;;;;14.02;2.72;;;2.70;99.90;;;;;;4969813;28;20046;-73
2023/03/27 06:17:41;;;;;;;16.90;3.30;;;2.80;99.90;;;;;;4954723;28;20043;-73
2023/03/27 06:20:12;;;;;;;10.27;2.45;;;2.90;99.90;;;;;;4967502;28;20090;-73
2023/03/27 06:22:44;;;;;;;15.40;2.83;;;2.90;99.90;;;;;;4962045;28;20057;-73
2023/03/27 06:25:10;;;;;;;7.53;1.70;;;2.90;99.90;;;;;;4991998;28;20045;-72
2023/03/27 06:27:36;;;;;;;14.13;2.45;;;2.90;99.90;;;;;;4986692;28;20042;-73
2023/03/27 06:30:03;;;;;;;11.48;2.25;;;2.80;99.90;;;;;;4973678;28;20566;-72
2023/03/27 06:32:29;;;;;;;15.82;2.80;;;2.80;99.90;;;;;;4978445;28;20049;-72
2023/03/27 06:34:54;;;;;;;10.57;1.70;;;2.80;99.90;;;;;;4963227;28;20055;-72
2023/03/27 06:37:20;;;;;;;9.57;1.88;;;2.80;99.90;;;;;;4974927;28;20061;-72
2023/03/27 06:39:49;;;;;;;11.75;2.38;;;2.90;99.90;;;;;;4962815;28;20085;-72
2023/03/27 06:42:15;;;;;;;11.98;2.55;;;3.00;99.90;;;;;;4971526;28;20168;-71
2023/03/27 06:44:41;;;;;;;17.90;2.60;;;2.80;99.90;;;;;;4985479;28;20482;-71
2023/03/27 06:47:06;;;;;;;15.98;2.40;;;2.80;99.90;;;;;;4968888;28;20046;-71
2023/03/27 06:49:32;;;;;;;17.02;3.65;;;2.90;99.90;;;;;;4964139;28;20455;-72
2023/03/27 06:51:58;;;;;;;7.82;2.17;;;2.90;99.90;;;;;;4972717;28;20050;-72
2023/03/27 06:54:24;;;;;;;12.07;2.55;;;2.80;99.90;;;;;;4981891;28;20043;-72
2023/03/27 06:56:49;;;;;;;13.02;2.65;;;2.80;99.90;;;;;;4982527;28;20061;-72
2023/03/27 06:59:15;;;;;;;10.60;2.97;;;2.90;99.90;;;;;;4944571;28;20372;-72
2023/03/27 07:01:42;;;;;;;11.85;2.65;;;2.80;99.90;;;;;;4985781;28;20479;-72
2023/03/27 07:04:08;;;;;;;11.00;3.17;;;2.90;99.90;;;;;;4966529;28;20070;-72
2023/03/27 07:06:34;;;;;;;10.45;2.70;;;3.10;99.90;;;;;;4962967;28;20143;-74
2023/03/27 07:09:00;;;;;;;15.60;2.58;;;3.10;99.90;;;;;;4955100;28;20129;-74
2023/03/27 07:11:26;;;;;;;15.32;2.97;;;3.10;99.90;;;;;;4953758;28;20050;-74
2023/03/27 07:13:52;;;;;;;10.15;2.30;;;3.20;99.90;;;;;;4963203;28;20144;-73
2023/03/27 07:16:17;;;;;;;11.95;2.38;;;3.20;99.90;;;;;;4984082;28;20054;-73
2023/03/27 07:18:43;;;;;;;11.35;2.40;;;3.20;99.90;;;;;;4950537;28;20120;-73
2023/03/27 07:21:09;;;;;;;10.50;1.92;;;3.20;99.90;;;;;;4959837;28;20054;-73
2023/03/27 07:23:34;;;;;;;15.52;3.05;;;3.20;99.90;;;;;;4939338;28;20111;-74
2023/03/27 07:26:00;;;;;;;11.15;2.47;;;3.20;99.90;;;;;;4982741;28;20112;-74
2023/03/27 07:28:26;;;;;;;14.13;2.45;;;3.30;99.90;;;;;;4967387;28;20054;-74
2023/03/27 07:30:52;;;;;;;9.48;1.98;;;3.40;99.90;;;;;;4935568;28;20050;-74
2023/03/27 07:33:18;;;;;;;10.55;2.40;;;3.30;99.90;;;;;;4982196;28;21101;-74
2023/03/27 07:35:45;;;;;;;15.27;2.47;;;3.30;99.90;;;;;;4955274;28;20189;-74
2023/03/27 07:38:11;;;;;;;9.82;1.85;;;3.40;99.90;;;;;;4988162;28;20065;-74
2023/03/27 07:40:37;;;;;;;8.88;2.25;;;3.50;99.90;;;;;;4952560;28;20046;-74
2023/03/27 07:43:06;;;;;;;6.03;2.08;;;3.80;99.90;;;;;;4923365;28;20105;-75
2023/03/27 07:45:32;;;;;;;9.82;3.08;;;3.80;99.90;;;;;;4981214;28;20049;-74
2023/03/27 07:48:14;;;;;;;19.20;2.42;;;3.80;99.90;;;;;;4963847;28;20050;-74
2023/03/27 07:50:41;;;;;;;10.05;1.95;;;3.90;99.90;;;;;;4975918;28;20073;-74
2023/03/27 07:53:07;;;;;;;11.13;2.92;;;3.90;99.90;;;;;;4966804;28;20080;-74
2023/03/27 07:55:34;;;;;;;8.85;1.70;;;3.80;99.90;;;;;;4980345;28;20050;-75
2023/03/27 07:58:00;;;;;;;10.90;2.00;;;3.80;99.90;;;;;;4984679;28;20054;-74
2023/03/27 08:00:26;;;;;;;10.18;1.67;;;3.80;99.90;;;;;;4966548;28;20341;-74
2023/03/27 08:02:52;;;;;;;7.32;1.83;;;3.80;99.90;;;;;;4947216;28;20039;-74
2023/03/27 08:05:18;;;;;;;8.18;1.42;;;3.80;99.90;;;;;;4961107;28;20106;-75
2023/03/27 08:07:47;;;;;;;5.53;1.58;;;3.80;99.90;;;;;;4985982;28;20042;-74
2023/03/27 08:10:14;;;;;;;8.57;2.05;;;3.90;99.90;;;;;;4977070;28;20052;-74
2023/03/27 08:12:41;;;;;;;9.50;2.20;;;3.90;99.90;;;;;;4967819;28;20133;-74
2023/03/27 08:15:08;;;;;;;9.35;2.20;;;4.00;99.90;;;;;;4978388;28;20141;-74
2023/03/27 08:17:34;;;;;;;9.52;1.70;;;4.00;99.90;;;;;;4967960;28;20341;-75
2023/03/27 08:20:07;;;;;;;7.10;1.73;;;3.80;99.90;;;;;;4973116;28;20393;-74
2023/03/27 08:22:35;;;;;;;6.53;1.92;;;3.90;99.90;;;;;;4963240;28;20460;-74
2023/03/27 08:25:02;;;;;;;7.75;1.60;;;3.90;99.90;;;;;;4954492;28;20115;-75
2023/03/27 08:27:28;;;;;;;8.40;1.50;;;4.10;99.90;;;;;;4990122;28;20486;-74
2023/03/27 08:29:54;;;;;;;8.93;1.38;;;4.10;99.90;;;;;;4983005;28;20061;-74
2023/03/27 08:32:19;;;;;;;5.05;1.85;;;4.20;99.90;;;;;;4979606;28;20785;-74
2023/03/27 08:34:45;;;;;;;11.30;2.47;;;4.20;99.90;;;;;;4985777;28;20081;-75
2023/03/27 08:37:12;;;;;;;5.45;1.45;;;4.30;99.90;;;;;;4944948;28;20050;-75
2023/03/27 08:39:38;;;;;;;10.65;2.40;;;4.50;99.90;;;;;;4984509;28;20061;-74
2023/03/27 08:42:05;;;;;;;6.28;1.45;;;4.60;99.90;;;;;;4965143;28;20050;-75
2023/03/27 08:44:33;;;;;;;5.30;1.67;;;4.50;99.90;;;;;;4975405;28;20063;-74
2023/03/27 08:46:58;;;;;;;9.45;1.77;;;4.60;99.90;;;;;;4948990;28;20121;-75
2023/03/27 08:49:26;;;;;;;10.25;2.22;;;4.70;99.90;;;;;;4980472;28;20129;-75
2023/03/27 08:51:59;;;;;;;8.27;1.75;;;4.80;99.90;;;;;;4940710;28;20050;-75
2023/03/27 08:54:30;;;;;;;7.45;1.85;;;4.50;99.90;;;;;;4956231;28;20050;-75
2023/03/27 08:56:56;;;;;;;8.25;2.00;;;4.40;99.90;;;;;;4968852;28;20050;-74
2023/03/27 08:59:25;;;;;;;9.27;1.98;;;4.30;99.90;;;;;;4963173;28;20069;-75
2023/03/27 09:01:56;;;;;;;8.18;1.50;;;4.60;99.90;;;;;;4950315;28;20046;-74
2023/03/27 09:04:37;;;;;;;6.63;1.60;;;4.70;99.90;;;;;;4990458;28;20125;-74
2023/03/27 09:07:14;;;;;;;6.18;1.65;;;4.80;99.90;;;;;;4978903;28;20383;-74
2023/03/27 09:10:12;;;;;;;4.63;1.40;;;5.10;99.90;;;;;;4969604;28;20049;-76
2023/03/27 09:13:16;;;;;;;7.88;1.85;;;5.10;99.90;;;;;;4973341;28;20117;-74
2023/03/27 09:15:54;;;;;;;5.07;1.45;;;5.10;99.90;;;;;;4977967;28;20070;-73
2023/03/27 09:18:39;;;;;;;6.57;1.50;;;5.10;99.90;;;;;;4980230;28;20162;-74
2023/03/27 09:21:11;;;;;;;7.85;1.58;;;5.20;99.90;;;;;;4972365;28;20194;-74
2023/03/27 09:23:45;;;;;;;7.60;1.83;;;5.10;99.90;;;;;;4950608;28;20039;-75
2023/03/27 09:26:26;;;;;;;8.82;1.40;;;5.20;99.90;;;;;;4975145;28;20089;-74
2023/03/27 09:29:00;;;;;;;7.95;1.50;;;5.10;99.90;;;;;;4982680;28;20046;-74
2023/03/27 09:31:27;;;;;;;22.83;2.65;;;5.10;99.90;;;;;;4972735;28;20418;-76
2023/03/27 09:33:54;;;;;;;8.05;1.60;;;5.10;99.90;;;;;;4991697;28;20475;-75
2023/03/27 09:36:20;;;;;;;7.72;2.45;;;4.90;99.90;;;;;;4974305;28;20120;-74
2023/03/27 09:38:49;;;;;;;5.38;1.60;;;4.90;99.90;;;;;;4977437;28;20057;-73
2023/03/27 09:41:28;;;;;;;14.52;1.80;;;5.00;99.90;;;;;;4969359;28;20733;-74
2023/03/27 09:44:10;;;;;;;9.93;1.58;;;5.30;99.90;;;;;;4983890;28;20051;-74
2023/03/27 09:46:38;;;;;;;10.05;1.40;;;5.80;99.90;;;;;;4985735;28;20053;-74
2023/03/27 09:49:10;;;;;;;;;;;6.00;99.90;;;;;;4975751;28;20050;-75
2023/03/27 09:51:58;;;;;;;11.85;2.03;;;6.00;99.90;;;;;;4968984;28;20021;-73
2023/03/27 09:54:27;;;;;;;8.40;1.90;;;6.00;99.90;;;;;;4961338;28;20038;-74
2023/03/27 09:57:04;;;;;;;8.15;1.98;;;5.90;99.80;;;;;;4940295;28;20129;-75
2023/03/27 09:59:36;;;;;;;7.28;1.73;;;6.30;99.70;;;;;;4960134;28;20042;-75
2023/03/27 10:02:19;;;;;;;8.38;1.40;;;6.30;98.70;;;;;;4948737;28;20046;-74
2023/03/27 10:05:10;;;;;;;13.23;3.28;;;6.10;99.30;;;;;;4970771;28;20062;-73
2023/03/27 10:07:38;;;;;;;6.88;1.70;;;6.10;97.30;;;;;;4985220;28;20042;-72
2023/03/27 10:10:07;;;;;;;4.95;1.10;;;6.00;98.00;;;;;;4954259;28;20161;-75
2023/03/27 10:12:34;;;;;;;7.45;1.30;;;6.20;98.00;;;;;;4968843;28;20120;-74
2023/03/27 10:14:59;;;;;;;6.18;1.30;;;5.80;97.60;;;;;;4973872;28;20077;-74
2023/03/27 10:17:48;;;;;;;9.65;1.70;;;5.70;98.10;;;;;;4945650;28;20058;-75
2023/03/27 10:20:18;;;;;;;4.72;1.35;;;6.00;97.80;;;;;;4978708;28;20058;-74
2023/03/27 10:22:51;;;;;;;4.95;1.33;;;6.20;97.30;;;;;;4964366;28;20058;-74
2023/03/27 10:25:18;;;;;;;3.35;1.02;;;6.30;95.60;;;;;;4965189;28;20077;-74
2023/03/27 10:27:45;;;;;;;4.70;1.67;;;5.90;96.00;;;;;;4954713;28;20050;-75
2023/03/27 10:30:32;;;;;;;5.55;1.33;;;5.60;98.80;;;;;;4988740;28;20129;-75
2023/03/27 10:32:58;;;;;;;7.40;1.85;;;4.60;99.90;;;;;;4983858;28;20081;-74
2023/03/27 10:35:28;;;;;;;10.23;1.92;;;3.70;99.90;;;;;;4958410;28;20097;-73
2023/03/27 10:37:54;;;;;;;9.90;1.90;;;3.20;99.90;;;;;;4983540;28;20058;-75
2023/03/27 10:40:23;;;;;;;5.90;1.50;;;3.30;99.90;;;;;;4963169;28;20052;-73
2023/03/27 10:42:48;;;;;;;6.78;1.58;;;3.90;99.90;;;;;;4992573;28;20479;-74
2023/03/27 10:45:19;;;;;;;3.78;1.10;;;4.10;99.90;;;;;;4959174;28;20745;-74
2023/03/27 10:47:56;;;;;;;5.70;1.23;;;4.20;99.90;;;;;;4976485;28;20133;-74
2023/03/27 10:50:43;;;;;;;5.80;2.00;;;4.00;99.90;;;;;;4989600;28;20060;-73
2023/03/27 10:53:23;;;;;;;9.88;1.67;;;3.90;99.90;;;;;;4963408;28;20073;-74
2023/03/27 10:56:11;;;;;;;4.63;1.50;;;4.00;99.90;;;;;;4950618;28;20184;-75
2023/03/27 10:58:43;;;;;;;7.38;1.45;;;4.10;99.90;;;;;;4987019;28;20047;-75
2023/03/27 11:01:28;;;;;;;5.20;1.30;;;4.30;99.90;;;;;;4972861;28;20108;-74
2023/03/27 11:04:02;;;;;;;5.28;1.40;;;4.30;99.90;;;;;;4981878;28;20046;-74
2023/03/27 11:06:30;;;;;;;5.50;1.42;;;4.10;99.90;;;;;;4950682;28;20126;-74
2023/03/27 11:09:16;;;;;;;3.25;1.40;;;4.20;99.90;;;;;;4969914;28;20047;-74
2023/03/27 11:12:09;;;;;;;6.50;1.10;;;4.30;99.90;;;;;;4972917;28;20057;-73
2023/03/27 11:14:42;;;;;;;8.18;2.40;;;4.80;99.90;;;;;;4965833;28;20082;-74
2023/03/27 11:17:09;;;;;;;8.73;1.73;;;5.40;99.90;;;;;;4967203;28;20349;-74
2023/03/27 11:19:50;;;;;;;3.65;1.55;;;5.70;99.90;;;;;;4963381;28;20078;-74
2023/03/27 11:22:30;;;;;;;3.35;1.02;;;5.90;99.90;;;;;;4979259;28;20066;-74
2023/03/27 11:25:42;;;;;;;5.93;1.70;;;5.50;99.90;;;;;;4965881;28;20054;-74
2023/03/27 11:28:46;;;;;;;4.45;1.48;;;5.40;99.90;;;;;;5003634;28;20038;-74
2023/03/27 11:31:36;;;;;;;2.80;1.10;;;5.20;99.90;;;;;;4985396;28;20345;-74
2023/03/27 11:34:29;;;;;;;4.45;1.45;;;5.10;99.90;;;;;;4982588;28;20054;-73
2023/03/27 11:37:00;;;;;;;7.30;1.30;;;5.00;99.90;;;;;;4969926;28;20069;-74
2023/03/27 11:39:43;;;;;;;2.70;1.10;;;4.90;99.90;;;;;;4957647;28;20161;-74
2023/03/27 11:42:22;;;;;;;4.35;1.20;;;4.60;99.90;;;;;;4980037;28;20074;-74
2023/03/27 11:44:47;;;;;;;2.05;1.10;;;4.20;99.90;;;;;;4981699;28;20066;-74
2023/03/27 11:47:36;;;;;;;4.45;0.82;;;3.60;99.90;;;;;;4963824;28;20460;-75
2023/03/27 11:50:29;;;;;;;2.67;0.70;;;3.00;99.90;;;;;;4987924;28;20042;-74
2023/03/27 11:53:26;;;;;;;2.58;0.73;;;2.80;99.90;;;;;;4963025;28;20042;-74
2023/03/27 11:56:08;;;;;;;0.70;0.60;;;2.80;99.90;;;;;;4977524;28;20364;-74
2023/03/27 11:58:37;;;;;;;2.63;0.85;;;2.90;99.90;;;;;;4979640;28;20089;-73
2023/03/27 12:01:22;;;;;;;0.82;0.60;;;2.90;99.90;;;;;;4973635;28;20055;-74
2023/03/27 12:03:51;;;;;;;1.83;0.80;;;3.50;99.90;;;;;;4941013;28;20057;-74
2023/03/27 12:06:29;;;;;;;0.93;0.55;;;4.20;99.90;;;;;;4980619;28;20501;-74
2023/03/27 12:09:22;;;;;;;1.33;0.80;;;4.40;99.90;;;;;;4953256;28;20859;-74
2023/03/27 12:12:03;;;;;;;1.05;0.60;;;5.00;99.90;;;;;;4943321;28;20161;-74
2023/03/27 12:14:57;;;;;;;5.38;0.73;;;5.00;99.90;;;;;;4938953;28;20043;-74
2023/03/27 12:17:26;;;;;;;2.60;0.50;;;5.10;99.90;;;;;;4946975;28;20058;-74
2023/03/27 12:20:15;;;;;;;1.90;0.65;;;5.10;99.90;;;;;;4973376;28;20737;-74
2023/03/27 12:22:58;;;;;;;2.33;0.73;;;5.60;99.90;;;;;;4979497;28;20134;-74
2023/03/27 12:25:40;;;;;;;1.40;0.70;;;6.00;99.90;;;;;;4978144;28;20244;-74
2023/03/27 12:28:41;;;;;;;1.27;0.70;;;6.00;99.90;;;;;;4978907;28;20053;-74
2023/03/27 12:31:25;;;;;;;1.63;0.63;;;5.80;99.90;;;;;;4964821;28;20077;-74
2023/03/27 12:34:00;;;;;;;3.30;1.10;;;5.70;99.90;;;;;;4973118;28;20047;-74
2023/03/27 12:36:26;;;;;;;2.25;0.82;;;6.00;99.90;;;;;;4962449;28;20078;-75
2023/03/27 12:38:56;;;;;;;2.85;1.10;;;6.50;99.90;;;;;;4968397;28;20070;-75
2023/03/27 12:41:30;;;;;;;7.55;2.38;;;6.50;99.90;;;;;;4961676;28;20050;-75
2023/03/27 12:44:00;;;;;;;2.95;1.30;;;7.20;99.90;;;;;;4980112;28;20039;-73
2023/03/27 12:46:27;;;;;;;5.30;2.20;;;6.70;99.90;;;;;;4968705;28;20042;-73
2023/03/27 12:48:53;;;;;;;4.22;1.40;;;7.70;99.90;;;;;;4984418;28;20153;-73
2023/03/27 12:51:19;;;;;;;4.97;1.30;;;8.10;99.90;;;;;;4984504;28;20122;-73
2023/03/27 12:53:45;;;;;;;3.78;1.30;;;7.90;99.90;;;;;;4962810;28;20051;-73
2023/03/27 12:56:23;;;;;;;4.43;1.40;;;8.30;99.90;;;;;;4965332;28;20053;-73
2023/03/27 12:58:50;;;;;;;3.03;1.30;;;9.00;99.90;;;;;;4964057;28;20061;-73
2023/03/27 13:01:28;;;;;;;4.43;1.40;;;8.60;99.90;;;;;;4980571;28;20050;-74
2023/03/27 13:04:26;;;;;;;2.83;1.30;;;7.30;99.90;;;;;;4977324;28;20078;-73
2023/03/27 13:07:09;;;;;;;1.55;0.57;;;6.80;99.90;;;;;;4974891;28;20400;-73
2023/03/27 13:09:52;;;;;;;1.33;0.70;;;5.70;99.90;;;;;;4972493;28;20133;-73
2023/03/27 13:12:29;;;;;;;0.50;0.47;;;4.50;99.90;;;;;;4967534;28;20049;-73
2023/03/27 13:15:01;;;;;;;1.33;0.60;;;3.70;99.90;;;;;;4977154;28;20448;-73
2023/03/27 13:17:40;;;;;;;2.03;0.70;;;3.10;99.90;;;;;;4972635;28;20050;-73